createdAt,value
2023-01-21T00:01:09.996Z,7.30
2023-01-21T00:03:38.177Z,6.73
2023-01-21T00:06:06.660Z,7.73
2023-01-21T00:08:34.823Z,7.80
2023-01-21T00:11:06.460Z,6.73
2023-01-21T00:13:36.579Z,8.60
2023-01-21T00:16:05.892Z,8.83
2023-01-21T00:18:34.295Z,8.77
2023-01-21T00:21:02.538Z,8.67
2023-01-21T00:23:30.638Z,7.60
2023-01-21T00:25:59.301Z,7.87
2023-01-21T00:28:29.822Z,11.27
2023-01-21T00:31:00.261Z,17.27
2023-01-21T00:33:28.777Z,17.73
2023-01-21T00:36:01.418Z,13.80
2023-01-21T00:38:29.973Z,11.33
2023-01-21T00:41:02.644Z,10.17
2023-01-21T00:43:31.507Z,8.67
2023-01-21T00:46:00.804Z,8.83
2023-01-21T00:48:29.243Z,7.87
2023-01-21T00:51:00.705Z,7.50
2023-01-21T00:53:30.029Z,8.40
2023-01-21T00:56:02.345Z,9.00
2023-01-21T00:58:31.591Z,8.73
2023-01-21T01:01:05.637Z,8.90
2023-01-21T01:03:34.410Z,7.47
2023-01-21T01:06:06.834Z,7.33
2023-01-21T01:08:35.143Z,6.43
2023-01-21T01:11:03.191Z,6.07
2023-01-21T01:13:32.102Z,6.30
2023-01-21T01:16:00.308Z,6.23
2023-01-21T01:18:32.604Z,6.10
2023-01-21T01:21:00.931Z,6.30
2023-01-21T01:23:29.295Z,5.60
2023-01-21T01:25:59.537Z,5.80
2023-01-21T01:28:27.950Z,6.43
2023-01-21T01:30:56.732Z,5.97
2023-01-21T01:33:26.305Z,5.40
2023-01-21T01:35:55.668Z,5.27
2023-01-21T01:38:24.309Z,5.13
2023-01-21T01:40:53.830Z,5.50
2023-01-21T01:43:24.411Z,5.47
2023-01-21T01:45:54.051Z,5.07
2023-01-21T01:48:27.244Z,5.47
2023-01-21T01:51:02.215Z,4.40
2023-01-21T01:53:31.947Z,4.63
2023-01-21T01:56:00.668Z,4.47
2023-01-21T01:58:30.748Z,5.63
2023-01-21T02:00:59.270Z,4.90
2023-01-21T02:03:46.351Z,5.50
2023-01-21T02:06:17.468Z,4.80
2023-01-21T02:08:47.141Z,5.03
2023-01-21T02:11:16.519Z,4.77
2023-01-21T02:13:47.497Z,4.87
2023-01-21T02:16:49.548Z,5.27
2023-01-21T02:20:07.948Z,6.97
2023-01-21T02:22:45.144Z,9.20
2023-01-21T02:25:42.452Z,12.20
2023-01-21T02:28:42.452Z,11.30
2023-01-21T02:31:29.694Z,12.07
2023-01-21T02:34:09.582Z,9.93
2023-01-21T02:36:48.479Z,8.37
2023-01-21T02:39:26.913Z,8.13
2023-01-21T02:42:04.508Z,7.33
2023-01-21T02:44:39.441Z,7.27
2023-01-21T02:47:16.181Z,6.43
2023-01-21T02:49:50.115Z,6.63
2023-01-21T02:52:20.333Z,6.63
2023-01-21T02:54:58.832Z,6.67
2023-01-21T02:57:36.938Z,7.00
2023-01-21T03:00:10.310Z,7.27
2023-01-21T03:03:17.077Z,7.70
2023-01-21T03:06:30.245Z,6.77
2023-01-21T03:09:02.955Z,8.57
2023-01-21T03:11:31.141Z,7.60
2023-01-21T03:14:20.626Z,8.43
2023-01-21T03:16:59.355Z,6.87
2023-01-21T03:19:33.617Z,6.27
2023-01-21T03:22:09.194Z,5.97
2023-01-21T03:24:39.626Z,5.20
2023-01-21T03:27:10.752Z,5.47
2023-01-21T03:29:42.311Z,5.17
2023-01-21T03:32:14.494Z,5.67
2023-01-21T03:34:45.313Z,5.63
2023-01-21T03:37:18.860Z,4.97
2023-01-21T03:39:53.595Z,5.27
2023-01-21T03:42:22.793Z,4.77
2023-01-21T03:44:50.946Z,4.63
2023-01-21T03:47:25.310Z,5.03
2023-01-21T03:49:58.767Z,4.67
2023-01-21T03:52:28.353Z,4.73
2023-01-21T03:54:56.716Z,4.43
2023-01-21T03:57:24.703Z,4.73
2023-01-21T03:59:52.557Z,4.20
2023-01-21T04:02:21.274Z,5.00
2023-01-21T04:04:49.260Z,4.67
2023-01-21T04:07:17.622Z,4.47
2023-01-21T04:09:47.330Z,4.77
2023-01-21T04:12:15.340Z,4.50
2023-01-21T04:14:43.444Z,4.47
2023-01-21T04:17:11.707Z,4.20
2023-01-21T04:19:39.582Z,4.37
2023-01-21T04:22:07.986Z,4.30
2023-01-21T04:24:36.121Z,4.43
2023-01-21T04:27:05.615Z,4.37
2023-01-21T04:29:33.606Z,4.63
2023-01-21T04:32:01.529Z,4.53
2023-01-21T04:34:29.839Z,4.47
2023-01-21T04:36:57.687Z,4.50
2023-01-21T04:39:25.715Z,4.70
2023-01-21T04:41:53.865Z,4.20
2023-01-21T04:44:23.180Z,4.57
2023-01-21T04:46:51.117Z,4.30
2023-01-21T04:49:19.121Z,4.37
2023-01-21T04:51:47.053Z,4.23
2023-01-21T04:54:15.589Z,4.70
2023-01-21T04:56:43.496Z,4.40
2023-01-21T04:59:12.399Z,4.53
2023-01-21T05:01:41.806Z,3.67
2023-01-21T05:04:09.988Z,4.47
2023-01-21T05:06:37.945Z,4.13
2023-01-21T05:09:06.048Z,4.70
2023-01-21T05:11:34.287Z,4.53
2023-01-21T05:14:02.159Z,4.90
2023-01-21T05:16:30.318Z,5.93
2023-01-21T05:18:59.840Z,5.00
2023-01-21T05:21:27.977Z,5.47
2023-01-21T05:23:56.153Z,6.57
2023-01-21T05:26:24.192Z,10.33
2023-01-21T05:28:54.288Z,8.30
2023-01-21T05:31:22.491Z,11.20
2023-01-21T05:33:50.559Z,6.60
2023-01-21T05:36:20.107Z,6.50
2023-01-21T05:38:48.015Z,6.20
2023-01-21T05:41:16.048Z,6.80
2023-01-21T05:43:43.980Z,7.10
2023-01-21T05:46:12.219Z,6.13
2023-01-21T05:48:40.337Z,5.63
2023-01-21T05:51:08.388Z,5.60
2023-01-21T05:53:37.985Z,5.97
2023-01-21T05:56:07.072Z,6.40
2023-01-21T05:58:35.688Z,5.80
2023-01-21T06:01:03.584Z,5.43
2023-01-21T06:03:31.873Z,6.13
2023-01-21T06:05:59.789Z,5.73
2023-01-21T06:08:27.667Z,5.23
2023-01-21T06:10:57.225Z,4.90
2023-01-21T06:13:26.011Z,5.43
2023-01-21T06:15:55.884Z,5.50
2023-01-21T06:18:24.612Z,5.17
2023-01-21T06:20:52.532Z,4.87
2023-01-21T06:23:20.622Z,5.30
2023-01-21T06:25:50.723Z,4.20
2023-01-21T06:28:20.191Z,4.23
2023-01-21T06:30:48.500Z,4.37
2023-01-21T06:33:16.538Z,4.53
2023-01-21T06:35:44.522Z,4.27
2023-01-21T06:38:12.436Z,4.93
2023-01-21T06:40:40.869Z,5.67
2023-01-21T06:43:09.425Z,5.87
2023-01-21T06:45:38.693Z,5.37
2023-01-21T06:48:07.112Z,6.23
2023-01-21T06:50:35.062Z,5.57
2023-01-21T06:53:02.934Z,6.37
2023-01-21T06:55:31.089Z,5.50
2023-01-21T06:57:59.226Z,6.93
2023-01-21T07:00:27.536Z,7.33
2023-01-21T07:02:58.966Z,7.13
2023-01-21T07:05:27.842Z,6.83
2023-01-21T07:07:56.662Z,7.10
2023-01-21T07:10:25.363Z,6.47
2023-01-21T07:12:53.333Z,6.70
2023-01-21T07:15:21.269Z,7.03
2023-01-21T07:17:49.197Z,7.60
2023-01-21T07:20:19.220Z,7.80
2023-01-21T07:22:47.441Z,6.63
2023-01-21T07:25:15.785Z,7.13
2023-01-21T07:27:44.108Z,7.03
2023-01-21T07:30:17.522Z,6.73
2023-01-21T07:32:45.762Z,6.37
2023-01-21T07:35:13.979Z,6.77
2023-01-21T07:37:44.025Z,7.63
2023-01-21T07:40:13.464Z,6.80
2023-01-21T07:42:41.437Z,6.87
2023-01-21T07:45:10.519Z,6.23
2023-01-21T07:47:38.442Z,6.57
2023-01-21T07:50:08.592Z,6.83
2023-01-21T07:52:37.008Z,8.20
2023-01-21T07:55:08.103Z,7.37
2023-01-21T07:57:36.780Z,7.90
2023-01-21T08:00:05.326Z,7.23
2023-01-21T08:02:39.671Z,7.13
2023-01-21T08:05:08.126Z,7.30
2023-01-21T08:07:36.331Z,7.20
2023-01-21T08:10:06.067Z,7.93
2023-01-21T08:12:34.059Z,8.00
2023-01-21T08:15:02.102Z,9.07
2023-01-21T08:17:30.172Z,9.93
2023-01-21T08:19:58.152Z,9.73
2023-01-21T08:22:26.895Z,9.93
2023-01-21T08:24:55.038Z,12.43
2023-01-21T08:27:24.439Z,14.13
2023-01-21T08:29:52.724Z,13.67
2023-01-21T08:32:21.261Z,12.10
2023-01-21T08:34:49.164Z,10.40
2023-01-21T08:37:19.012Z,10.80
2023-01-21T08:39:46.940Z,10.73
2023-01-21T08:42:14.881Z,9.83
2023-01-21T08:44:48.161Z,9.37
2023-01-21T08:47:16.184Z,9.23
2023-01-21T08:49:44.409Z,7.70
2023-01-21T08:52:12.829Z,7.80
2023-01-21T08:54:41.348Z,8.17
2023-01-21T08:57:09.598Z,7.53
2023-01-21T08:59:37.543Z,7.07
2023-01-21T09:02:08.281Z,7.20
2023-01-21T09:04:36.310Z,7.67
2023-01-21T09:07:04.411Z,7.37
2023-01-21T09:09:32.420Z,7.30
2023-01-21T09:12:01.017Z,7.70
2023-01-21T09:14:29.104Z,7.77
2023-01-21T09:16:57.319Z,8.70
2023-01-21T09:19:27.583Z,8.43
2023-01-21T09:21:55.608Z,8.47
2023-01-21T09:24:24.820Z,7.73
2023-01-21T09:26:52.685Z,8.30
2023-01-21T09:29:20.698Z,8.03
2023-01-21T09:31:48.722Z,7.50
2023-01-21T09:34:16.808Z,7.57
2023-01-21T09:36:49.319Z,7.67
2023-01-21T09:39:17.283Z,6.47
2023-01-21T09:41:49.630Z,6.67
2023-01-21T09:44:24.313Z,6.57
2023-01-21T09:46:57.455Z,6.17
2023-01-21T09:49:29.582Z,6.27
2023-01-21T09:52:04.306Z,6.47
2023-01-21T09:54:34.797Z,6.30
2023-01-21T09:57:28.336Z,6.50
2023-01-21T10:00:08.402Z,7.00
2023-01-21T10:02:53.237Z,6.37
2023-01-21T10:05:41.707Z,6.83
2023-01-21T10:08:19.028Z,7.20
2023-01-21T10:10:52.442Z,6.67
2023-01-21T10:13:43.183Z,8.23
2023-01-21T10:16:19.234Z,7.43
2023-01-21T10:18:49.657Z,8.10
2023-01-21T10:21:30.633Z,8.67
2023-01-21T10:24:05.021Z,8.40
2023-01-21T10:26:35.064Z,8.07
2023-01-21T10:29:03.216Z,7.97
2023-01-21T10:31:38.976Z,7.97
2023-01-21T10:34:13.598Z,7.63
2023-01-21T10:36:54.202Z,6.87
2023-01-21T10:39:32.615Z,8.00
2023-01-21T10:42:11.104Z,7.33
2023-01-21T10:44:46.805Z,8.50
2023-01-21T10:47:24.782Z,8.30
2023-01-21T10:50:01.494Z,7.97
2023-01-21T10:52:38.229Z,8.47
2023-01-21T10:55:20.593Z,7.13
2023-01-21T10:57:57.223Z,8.10
2023-01-21T11:00:27.815Z,9.37
2023-01-21T11:03:00.067Z,9.43
2023-01-21T11:05:29.508Z,8.67
2023-01-21T11:07:58.806Z,8.43
2023-01-21T11:10:28.844Z,9.07
2023-01-21T11:12:57.833Z,7.97
2023-01-21T11:15:26.189Z,7.47
2023-01-21T11:17:56.675Z,7.23
2023-01-21T11:20:33.101Z,7.33
2023-01-21T11:23:05.536Z,6.77
2023-01-21T11:25:41.451Z,6.83
2023-01-21T11:28:23.671Z,6.67
2023-01-21T11:31:03.322Z,5.93
2023-01-21T11:33:31.403Z,6.43
2023-01-21T11:36:13.927Z,6.67
2023-01-21T11:38:43.045Z,6.53
2023-01-21T11:41:22.658Z,6.13
2023-01-21T11:43:53.168Z,6.23
2023-01-21T11:46:36.545Z,6.47
2023-01-21T11:49:34.497Z,6.20
2023-01-21T11:52:21.232Z,6.00
2023-01-21T11:54:49.383Z,5.53
2023-01-21T11:57:30.547Z,5.97
2023-01-21T12:00:07.510Z,5.60
2023-01-21T12:02:42.799Z,6.30
2023-01-21T12:05:16.983Z,5.90
2023-01-21T12:07:50.595Z,5.53
2023-01-21T12:10:26.978Z,5.80
2023-01-21T12:13:15.216Z,6.00
2023-01-21T12:16:03.448Z,4.97
2023-01-21T12:18:50.750Z,5.20
2023-01-21T12:21:29.910Z,5.70
2023-01-21T12:24:09.968Z,5.30
2023-01-21T12:26:42.105Z,5.20
2023-01-21T12:29:36.079Z,5.50
2023-01-21T12:32:09.961Z,5.27
2023-01-21T12:34:41.213Z,5.13
2023-01-21T12:37:17.459Z,5.00
2023-01-21T12:39:51.918Z,5.50
2023-01-21T12:42:25.368Z,5.20
2023-01-21T12:44:58.228Z,5.03
2023-01-21T12:47:33.123Z,4.90
2023-01-21T12:50:20.661Z,4.67
2023-01-21T12:53:00.114Z,4.80
2023-01-21T12:55:37.839Z,5.27
2023-01-21T12:58:12.445Z,4.73
2023-01-21T13:00:46.164Z,5.67
2023-01-21T13:03:26.498Z,4.33
2023-01-21T13:05:59.514Z,4.90
2023-01-21T13:08:48.200Z,4.67
2023-01-21T13:11:21.310Z,4.20
2023-01-21T13:13:55.467Z,4.73
2023-01-21T13:16:27.192Z,4.40
2023-01-21T13:18:56.711Z,4.43
2023-01-21T13:21:37.499Z,3.83
2023-01-21T13:24:16.722Z,4.43
2023-01-21T13:26:52.244Z,4.20
2023-01-21T13:29:30.071Z,4.10
2023-01-21T13:32:23.185Z,3.93
2023-01-21T13:34:58.704Z,3.60
2023-01-21T13:37:34.070Z,3.40
2023-01-21T13:40:22.466Z,3.80
2023-01-21T13:42:59.950Z,3.23
2023-01-21T13:45:38.056Z,4.10
2023-01-21T13:48:26.572Z,3.80
2023-01-21T13:51:07.772Z,3.97
2023-01-21T13:54:03.603Z,3.37
2023-01-21T13:56:54.527Z,3.60
2023-01-21T13:59:25.585Z,3.17
2023-01-21T14:01:59.329Z,3.00
2023-01-21T14:04:32.758Z,3.00
2023-01-21T14:07:04.927Z,2.87
2023-01-21T14:09:38.385Z,2.67
2023-01-21T14:12:13.416Z,2.50
2023-01-21T14:15:09.155Z,2.23
2023-01-21T14:18:05.349Z,2.10
2023-01-21T14:21:04.028Z,2.53
2023-01-21T14:23:46.787Z,2.20
2023-01-21T14:26:35.236Z,2.40
2023-01-21T14:29:11.893Z,2.47
2023-01-21T14:31:44.763Z,2.40
2023-01-21T14:34:17.749Z,2.53
2023-01-21T14:36:55.383Z,2.50
2023-01-21T14:39:37.076Z,2.67
2023-01-21T14:42:10.750Z,2.63
2023-01-21T14:44:44.740Z,2.60
2023-01-21T14:47:18.378Z,2.30
2023-01-21T14:49:48.251Z,2.93
2023-01-21T14:52:20.107Z,3.00
2023-01-21T14:54:49.249Z,2.57
2023-01-21T14:57:27.999Z,2.87
2023-01-21T15:00:05.647Z,2.90
2023-01-21T15:02:35.770Z,3.10
2023-01-21T15:05:16.504Z,2.90
2023-01-21T15:07:49.012Z,2.90
2023-01-21T15:10:21.216Z,2.63
2023-01-21T15:12:54.122Z,2.63
2023-01-21T15:15:34.267Z,2.80
2023-01-21T15:18:22.902Z,2.70
2023-01-21T15:20:52.989Z,2.47
2023-01-21T15:23:41.434Z,2.37
2023-01-21T15:26:21.430Z,2.67
2023-01-21T15:28:52.049Z,3.20
2023-01-21T15:31:42.534Z,3.30
2023-01-21T15:34:15.859Z,3.43
2023-01-21T15:36:50.542Z,3.17
2023-01-21T15:39:28.041Z,3.23
2023-01-21T15:42:07.567Z,2.97
2023-01-21T15:44:51.927Z,3.03
2023-01-21T15:47:41.081Z,2.83
2023-01-21T15:50:19.318Z,2.43
2023-01-21T15:53:03.986Z,3.10
2023-01-21T15:55:51.294Z,2.63
2023-01-21T15:58:29.211Z,3.13
2023-01-21T16:01:05.037Z,3.10
2023-01-21T16:03:39.149Z,2.87
2023-01-21T16:06:20.754Z,3.20
2023-01-21T16:09:03.743Z,2.90
2023-01-21T16:11:47.831Z,3.00
2023-01-21T16:14:28.388Z,2.50
2023-01-21T16:17:07.011Z,2.97
2023-01-21T16:19:39.517Z,2.53
2023-01-21T16:22:10.129Z,3.27
2023-01-21T16:24:42.566Z,3.17
2023-01-21T16:27:20.232Z,3.53
2023-01-21T16:29:48.432Z,3.70
2023-01-21T16:32:20.258Z,4.10
2023-01-21T16:34:48.930Z,4.03
2023-01-21T16:37:18.973Z,4.53
2023-01-21T16:39:47.571Z,4.07
2023-01-21T16:42:32.623Z,3.90
2023-01-21T16:45:01.706Z,3.80
2023-01-21T16:47:37.007Z,3.77
2023-01-21T16:50:06.484Z,4.47
2023-01-21T16:52:34.366Z,4.03
2023-01-21T16:55:02.337Z,4.07
2023-01-21T16:57:32.731Z,4.00
2023-01-21T17:00:02.522Z,4.17
2023-01-21T17:02:32.485Z,4.47
2023-01-21T17:05:02.156Z,4.50
2023-01-21T17:07:34.526Z,4.90
2023-01-21T17:10:05.784Z,5.33
2023-01-21T17:12:36.514Z,5.70
2023-01-21T17:15:18.603Z,5.00
2023-01-21T17:17:47.455Z,6.13
2023-01-21T17:20:35.144Z,6.83
2023-01-21T17:23:04.919Z,6.10
2023-01-21T17:25:33.136Z,6.30
2023-01-21T17:28:17.995Z,7.07
2023-01-21T17:30:46.339Z,7.07
2023-01-21T17:33:30.485Z,8.77
2023-01-21T17:36:10.621Z,10.50
2023-01-21T17:38:43.369Z,9.53
2023-01-21T17:41:23.287Z,9.43
2023-01-21T17:43:55.612Z,9.40
2023-01-21T17:46:24.302Z,10.53
2023-01-21T17:48:55.556Z,10.30
2023-01-21T17:51:27.273Z,9.40
2023-01-21T17:53:58.854Z,9.57
2023-01-21T17:56:39.642Z,9.23
2023-01-21T17:59:38.213Z,8.17
2023-01-21T18:02:10.688Z,7.80
2023-01-21T18:04:38.666Z,7.27
2023-01-21T18:07:15.887Z,8.57
2023-01-21T18:09:43.988Z,8.20
2023-01-21T18:12:12.558Z,8.03
2023-01-21T18:14:43.457Z,7.87
2023-01-21T18:17:18.043Z,8.07
2023-01-21T18:19:46.349Z,6.60
2023-01-21T18:22:22.631Z,6.67
2023-01-21T18:24:50.707Z,6.37
2023-01-21T18:27:20.485Z,6.10
2023-01-21T18:29:50.709Z,17.63
2023-01-21T18:32:19.449Z,12.70
2023-01-21T18:34:47.712Z,8.70
2023-01-21T18:37:17.377Z,6.90
2023-01-21T18:39:45.743Z,6.00
2023-01-21T18:42:15.792Z,5.73
2023-01-21T18:44:44.793Z,5.40
2023-01-21T18:47:14.870Z,5.97
2023-01-21T18:49:43.290Z,5.67
2023-01-21T18:52:11.726Z,4.53
2023-01-21T18:54:40.219Z,4.67
2023-01-21T18:57:12.365Z,4.87
2023-01-21T18:59:40.357Z,3.80
2023-01-21T19:02:15.365Z,5.20
2023-01-21T19:04:43.392Z,4.83
2023-01-21T19:07:15.721Z,5.20
2023-01-21T19:09:45.930Z,4.80
2023-01-21T19:12:17.162Z,4.27
2023-01-21T19:14:45.459Z,4.87
2023-01-21T19:17:16.350Z,4.50
2023-01-21T19:19:44.588Z,5.10
2023-01-21T19:22:14.916Z,5.50
2023-01-21T19:24:43.070Z,6.07
2023-01-21T19:27:15.306Z,6.17
2023-01-21T19:29:43.255Z,5.90
2023-01-21T19:32:15.810Z,5.70
2023-01-21T19:34:43.945Z,5.90
2023-01-21T19:37:14.811Z,4.77
2023-01-21T19:39:42.844Z,5.57
2023-01-21T19:42:12.562Z,6.07
2023-01-21T19:44:40.533Z,6.20
2023-01-21T19:47:18.073Z,6.40
2023-01-21T19:49:46.135Z,6.07
2023-01-21T19:52:15.633Z,5.97
2023-01-21T19:54:43.712Z,6.33
2023-01-21T19:57:14.999Z,8.67
2023-01-21T19:59:44.202Z,8.20
2023-01-21T20:02:12.627Z,6.53
2023-01-21T20:04:41.899Z,7.33
2023-01-21T20:07:13.900Z,6.27
2023-01-21T20:09:42.045Z,6.43
2023-01-21T20:12:12.596Z,6.00
2023-01-21T20:14:40.602Z,5.67
2023-01-21T20:17:13.849Z,5.87
2023-01-21T20:19:43.254Z,5.57
2023-01-21T20:22:13.238Z,6.10
2023-01-21T20:24:41.116Z,5.60
2023-01-21T20:27:14.130Z,5.27
2023-01-21T20:29:49.586Z,5.77
2023-01-21T20:32:23.491Z,5.83
2023-01-21T20:34:53.065Z,5.77
2023-01-21T20:37:21.041Z,6.43
2023-01-21T20:39:48.938Z,6.83
2023-01-21T20:42:16.980Z,6.33
2023-01-21T20:44:44.860Z,6.60
2023-01-21T20:47:12.988Z,6.43
2023-01-21T20:49:40.862Z,6.47
2023-01-21T20:52:11.967Z,6.03
2023-01-21T20:54:40.303Z,6.10
2023-01-21T20:57:13.261Z,6.40
2023-01-21T20:59:41.223Z,5.90
2023-01-21T21:02:12.468Z,6.00
2023-01-21T21:04:41.098Z,5.90
2023-01-21T21:07:15.382Z,6.17
2023-01-21T21:09:43.693Z,6.30
2023-01-21T21:12:12.158Z,5.77
2023-01-21T21:14:40.260Z,6.00
2023-01-21T21:17:12.282Z,5.87
2023-01-21T21:19:40.308Z,5.70
2023-01-21T21:22:09.120Z,6.73
2023-01-21T21:24:38.595Z,6.50
2023-01-21T21:27:06.793Z,5.90
2023-01-21T21:29:34.754Z,6.50
2023-01-21T21:32:02.786Z,7.57
2023-01-21T21:34:30.971Z,7.10
2023-01-21T21:36:59.029Z,6.93
2023-01-21T21:39:27.136Z,7.40
2023-01-21T21:42:25.701Z,7.20
2023-01-21T21:44:53.621Z,7.20
2023-01-21T21:47:38.909Z,7.50
2023-01-21T21:50:07.646Z,6.73
2023-01-21T21:52:35.616Z,7.67
2023-01-21T21:55:03.544Z,8.20
2023-01-21T21:57:33.570Z,7.43
2023-01-21T22:00:01.460Z,7.70
2023-01-21T22:02:29.452Z,7.73
2023-01-21T22:04:57.533Z,7.40
2023-01-21T22:07:25.479Z,8.40
2023-01-21T22:09:53.400Z,7.53
2023-01-21T22:12:21.419Z,7.60
2023-01-21T22:14:50.622Z,8.47
2023-01-21T22:17:18.799Z,7.77
2023-01-21T22:19:46.694Z,7.67
2023-01-21T22:22:14.602Z,7.70
2023-01-21T22:24:44.067Z,8.17
2023-01-21T22:27:13.211Z,7.73
2023-01-21T22:29:41.154Z,9.47
2023-01-21T22:32:10.439Z,10.80
2023-01-21T22:34:38.811Z,8.87
2023-01-21T22:37:06.729Z,8.10
2023-01-21T22:39:34.636Z,8.20
2023-01-21T22:42:04.914Z,8.00
2023-01-21T22:44:33.127Z,8.07
2023-01-21T22:47:01.245Z,7.50
2023-01-21T22:49:30.625Z,7.53
2023-01-21T22:51:58.540Z,6.83
2023-01-21T22:54:26.987Z,7.43
2023-01-21T22:56:55.048Z,7.07
2023-01-21T22:59:23.020Z,6.87
2023-01-21T23:01:51.158Z,7.13
2023-01-21T23:04:19.467Z,7.60
2023-01-21T23:06:51.042Z,7.50
2023-01-21T23:09:19.167Z,6.40
2023-01-21T23:11:47.135Z,6.73
2023-01-21T23:14:15.406Z,6.63
2023-01-21T23:16:43.783Z,7.10
2023-01-21T23:19:12.207Z,7.07
2023-01-21T23:21:40.510Z,6.67
2023-01-21T23:24:10.097Z,7.03
2023-01-21T23:26:38.423Z,7.17
2023-01-21T23:29:06.345Z,7.70
2023-01-21T23:31:35.589Z,6.77
2023-01-21T23:34:04.183Z,7.23
2023-01-21T23:36:32.274Z,6.83
2023-01-21T23:39:00.360Z,6.20
2023-01-21T23:41:29.687Z,6.27
2023-01-21T23:43:59.757Z,6.77
2023-01-21T23:46:27.862Z,7.37
2023-01-21T23:48:55.931Z,7.83
2023-01-21T23:51:23.980Z,7.47
2023-01-21T23:53:51.887Z,7.47
2023-01-21T23:56:23.088Z,8.07
2023-01-21T23:58:52.795Z,7.53
